createdAt,value
2022-12-03T00:02:23.845Z,101470.03
2022-12-03T00:05:27.094Z,101470.03
2022-12-03T00:08:29.755Z,101468.34
2022-12-03T00:11:32.500Z,101472.63
2022-12-03T00:14:36.882Z,101479.41
2022-12-03T00:17:41.374Z,101470.88
2022-12-03T00:20:43.892Z,101470.06
2022-12-03T00:23:46.466Z,101477.75
2022-12-03T00:26:48.929Z,101478.63
2022-12-03T00:29:51.411Z,101477.78
2022-12-03T00:32:53.920Z,101479.47
2022-12-03T00:35:56.467Z,101482.06
2022-12-03T00:38:58.883Z,101476.94
2022-12-03T00:42:01.442Z,101482.91
2022-12-03T00:45:04.260Z,101487.16
2022-12-03T00:48:06.870Z,101490.59
2022-12-03T00:51:09.591Z,101485.47
2022-12-03T00:54:12.075Z,101488.00
2022-12-03T00:57:14.647Z,101482.91
2022-12-03T01:00:17.759Z,101489.75
2022-12-03T01:03:20.365Z,101479.53
2022-12-03T01:06:23.068Z,101489.69
2022-12-03T01:09:25.537Z,101489.69
2022-12-03T01:12:27.968Z,101493.09
2022-12-03T01:15:30.352Z,101487.97
2022-12-03T01:18:33.090Z,101487.97
2022-12-03T01:21:35.577Z,101488.81
2022-12-03T01:24:38.040Z,101476.91
2022-12-03T01:27:40.588Z,101482.00
2022-12-03T01:31:01.904Z,101484.50
2022-12-03T01:34:04.980Z,101481.94
2022-12-03T01:37:07.341Z,101487.16
2022-12-03T01:40:16.203Z,101480.31
2022-12-03T01:43:18.984Z,101476.97
2022-12-03T01:46:25.177Z,101487.22
2022-12-03T01:49:33.446Z,101488.09
2022-12-03T01:52:38.896Z,101486.38
2022-12-03T01:55:48.317Z,101486.34
2022-12-03T01:58:51.142Z,101482.91
2022-12-03T02:01:53.647Z,101480.38
2022-12-03T02:04:57.304Z,101478.59
2022-12-03T02:08:01.263Z,101479.47
2022-12-03T02:11:17.488Z,101482.88
2022-12-03T02:14:21.856Z,101479.44
2022-12-03T02:17:25.454Z,101485.41
2022-12-03T02:20:28.112Z,101479.41
2022-12-03T02:23:57.526Z,101485.31
2022-12-03T02:26:59.941Z,101477.75
2022-12-03T02:30:02.552Z,101480.28
2022-12-03T02:33:05.891Z,101481.16
2022-12-03T02:36:09.104Z,101480.31
2022-12-03T02:39:11.576Z,101487.97
2022-12-03T02:42:32.554Z,101472.66
2022-12-03T02:45:48.432Z,101472.66
2022-12-03T02:48:50.944Z,101482.84
2022-12-03T02:51:53.644Z,101477.69
2022-12-03T02:54:56.361Z,101480.19
2022-12-03T02:57:58.948Z,101477.66
2022-12-03T03:01:03.834Z,101484.56
2022-12-03T03:04:06.957Z,101477.78
2022-12-03T03:07:09.802Z,101480.34
2022-12-03T03:10:15.373Z,101476.91
2022-12-03T03:13:19.432Z,101480.28
2022-12-03T03:16:21.974Z,101482.06
2022-12-03T03:19:26.365Z,101482.09
2022-12-03T03:22:38.420Z,101477.81
2022-12-03T03:25:44.209Z,101484.63
2022-12-03T03:28:50.490Z,101476.94
2022-12-03T03:31:54.456Z,101482.09
2022-12-03T03:34:57.118Z,101482.09
2022-12-03T03:37:59.889Z,101477.00
2022-12-03T03:41:05.667Z,101472.69
2022-12-03T03:44:09.442Z,101474.50
2022-12-03T03:47:12.420Z,101477.03
2022-12-03T03:50:16.412Z,101477.88
2022-12-03T03:53:21.089Z,101478.72
2022-12-03T03:56:23.658Z,101475.31
2022-12-03T03:59:26.458Z,101484.69
2022-12-03T04:02:28.966Z,101475.34
2022-12-03T04:05:31.787Z,101486.41
2022-12-03T04:08:34.631Z,101483.00
2022-12-03T04:11:55.551Z,101491.53
2022-12-03T04:14:58.584Z,101490.69
2022-12-03T04:18:19.652Z,101493.19
2022-12-03T04:21:41.984Z,101482.13
2022-12-03T04:24:44.356Z,101489.78
2022-12-03T04:28:05.642Z,101487.25
2022-12-03T04:31:29.524Z,101500.88
2022-12-03T04:34:50.938Z,101499.19
2022-12-03T04:37:53.569Z,101503.44
2022-12-03T04:41:02.038Z,101492.38
2022-12-03T04:44:23.122Z,101501.75
2022-12-03T04:47:25.585Z,101499.19
2022-12-03T04:50:28.250Z,101495.81
2022-12-03T04:53:30.638Z,101495.81
2022-12-03T04:56:33.087Z,101495.78
2022-12-03T04:59:36.361Z,101500.91
2022-12-03T05:02:39.155Z,101507.69
2022-12-03T05:05:41.938Z,101500.88
2022-12-03T05:08:44.560Z,101501.72
2022-12-03T05:11:47.318Z,101509.41
2022-12-03T05:14:49.729Z,101502.59
2022-12-03T05:17:52.491Z,101499.19
2022-12-03T05:20:55.149Z,101499.22
2022-12-03T05:23:57.884Z,101503.47
2022-12-03T05:27:00.334Z,101511.94
2022-12-03T05:30:02.885Z,101510.25
2022-12-03T05:33:05.417Z,101509.41
2022-12-03T05:36:08.134Z,101510.22
2022-12-03T05:39:10.594Z,101505.97
2022-12-03T05:42:31.625Z,101508.53
2022-12-03T05:45:37.416Z,101510.19
2022-12-03T05:48:48.423Z,101505.03
2022-12-03T05:51:56.671Z,101508.41
2022-12-03T05:55:01.030Z,101509.22
2022-12-03T05:58:04.990Z,101512.59
2022-12-03T06:01:07.536Z,101515.19
2022-12-03T06:04:10.294Z,101514.34
2022-12-03T06:07:14.266Z,101516.88
2022-12-03T06:10:20.853Z,101522.78
2022-12-03T06:13:23.623Z,101517.69
2022-12-03T06:16:26.170Z,101524.47
2022-12-03T06:19:28.765Z,101525.28
2022-12-03T06:22:31.302Z,101526.97
2022-12-03T06:25:33.724Z,101525.38
2022-12-03T06:28:36.197Z,101534.69
2022-12-03T06:31:38.892Z,101533.94
2022-12-03T06:34:41.754Z,101530.53
2022-12-03T06:37:44.221Z,101529.66
2022-12-03T06:40:46.652Z,101527.91
2022-12-03T06:43:49.120Z,101528.75
2022-12-03T06:46:51.882Z,101544.06
2022-12-03T06:49:54.475Z,101540.59
2022-12-03T06:52:57.022Z,101544.91
2022-12-03T06:56:00.063Z,101550.00
2022-12-03T06:59:02.660Z,101547.47
2022-12-03T07:02:05.514Z,101552.56
2022-12-03T07:05:08.547Z,101545.81
2022-12-03T07:08:11.126Z,101540.69
2022-12-03T07:11:31.866Z,101544.91
2022-12-03T07:14:34.585Z,101541.50
2022-12-03T07:17:37.317Z,101546.63
2022-12-03T07:20:39.705Z,101543.28
2022-12-03T07:23:42.268Z,101549.22
2022-12-03T07:26:45.044Z,101549.25
2022-12-03T07:29:47.481Z,101539.06
2022-12-03T07:32:50.403Z,101545.88
2022-12-03T07:35:52.812Z,101543.28
2022-12-03T07:38:55.279Z,101545.00
2022-12-03T07:41:57.843Z,101545.84
2022-12-03T07:45:00.341Z,101543.31
2022-12-03T07:48:02.859Z,101540.81
2022-12-03T07:51:05.624Z,101537.38
2022-12-03T07:54:08.161Z,101539.94
2022-12-03T07:57:10.877Z,101534.03
2022-12-03T08:00:14.718Z,101528.06
2022-12-03T08:03:17.155Z,101535.75
2022-12-03T08:06:20.848Z,101534.91
2022-12-03T08:09:23.539Z,101537.47
2022-12-03T08:12:40.430Z,101541.72
2022-12-03T08:15:43.433Z,101542.56
2022-12-03T08:18:47.286Z,101547.72
2022-12-03T08:21:49.855Z,101544.28
2022-12-03T08:24:52.529Z,101540.03
2022-12-03T08:28:00.334Z,101543.41
2022-12-03T08:31:20.174Z,101540.84
2022-12-03T08:34:26.564Z,101538.25
2022-12-03T08:37:29.962Z,101533.13
2022-12-03T08:40:37.440Z,101540.75
2022-12-03T08:43:42.874Z,101543.28
2022-12-03T08:46:45.472Z,101545.81
2022-12-03T08:50:03.341Z,101556.00
2022-12-03T08:53:18.777Z,101560.16
2022-12-03T08:56:30.458Z,101561.84
2022-12-03T08:59:32.887Z,101555.81
2022-12-03T09:02:35.684Z,101557.44
2022-12-03T09:05:38.115Z,101559.91
2022-12-03T09:08:40.583Z,101554.78
2022-12-03T09:11:43.514Z,101563.31
2022-12-03T09:14:46.019Z,101562.41
2022-12-03T09:17:48.992Z,101553.88
2022-12-03T09:20:51.549Z,101564.88
2022-12-03T09:23:54.004Z,101558.84
2022-12-03T09:26:56.617Z,101562.34
2022-12-03T09:29:59.138Z,101552.06
2022-12-03T09:33:01.844Z,101553.72
2022-12-03T09:36:04.997Z,101551.94
2022-12-03T09:39:07.756Z,101548.47
2022-12-03T09:42:11.380Z,101546.69
2022-12-03T09:45:16.033Z,101557.72
2022-12-03T09:48:20.734Z,101537.97
2022-12-03T09:51:30.327Z,101547.31
2022-12-03T09:54:34.502Z,101535.34
2022-12-03T09:57:37.021Z,101529.34
2022-12-03T10:00:41.268Z,101532.75
2022-12-03T10:03:49.664Z,101534.34
2022-12-03T10:06:52.344Z,101527.47
2022-12-03T10:09:54.988Z,101529.09
2022-12-03T10:12:57.843Z,101529.88
2022-12-03T10:16:01.088Z,101522.91
2022-12-03T10:19:03.585Z,101523.78
2022-12-03T10:22:06.795Z,101520.47
2022-12-03T10:25:09.553Z,101513.59
2022-12-03T10:28:12.285Z,101507.44
2022-12-03T10:31:15.607Z,101511.75
2022-12-03T10:34:47.618Z,101506.38
2022-12-03T10:38:00.915Z,101498.72
2022-12-03T10:41:20.921Z,101477.22
2022-12-03T10:44:30.550Z,101478.75
2022-12-03T10:47:33.100Z,101471.91
2022-12-03T10:50:36.196Z,101468.25
2022-12-03T10:53:40.943Z,101470.72
2022-12-03T10:56:44.617Z,101477.81
2022-12-03T10:59:47.565Z,101479.41
2022-12-03T11:02:56.760Z,101464.59
2022-12-03T11:06:06.139Z,101476.66
2022-12-03T11:09:21.070Z,101480.00
2022-12-03T11:12:27.740Z,101478.00
2022-12-03T11:15:45.583Z,101478.97
2022-12-03T11:18:51.087Z,101470.28
2022-12-03T11:22:05.725Z,101471.13
2022-12-03T11:25:29.077Z,101470.06
2022-12-03T11:28:32.796Z,101459.91
2022-12-03T11:31:48.567Z,101459.75
2022-12-03T11:34:51.313Z,101452.81
2022-12-03T11:37:54.203Z,101452.78
2022-12-03T11:41:12.090Z,101454.38
2022-12-03T11:44:32.187Z,101450.09
2022-12-03T11:47:58.026Z,101458.44
2022-12-03T11:51:00.544Z,101451.16
2022-12-03T11:54:03.118Z,101442.78
2022-12-03T11:57:25.567Z,101443.56
2022-12-03T12:00:28.656Z,101437.56
2022-12-03T12:03:49.767Z,101438.38
2022-12-03T12:06:53.603Z,101442.66
2022-12-03T12:09:57.395Z,101449.44
2022-12-03T12:13:00.435Z,101440.81
2022-12-03T12:16:07.486Z,101445.81
2022-12-03T12:19:29.251Z,101438.03
2022-12-03T12:22:31.927Z,101434.41
2022-12-03T12:25:38.314Z,101438.56
2022-12-03T12:28:41.125Z,101433.38
2022-12-03T12:31:44.359Z,101431.59
2022-12-03T12:34:53.833Z,101436.75
2022-12-03T12:38:16.582Z,101429.22
2022-12-03T12:41:19.112Z,101432.56
2022-12-03T12:44:23.666Z,101427.38
2022-12-03T12:47:26.297Z,101428.44
2022-12-03T12:50:31.421Z,101420.69
2022-12-03T12:53:35.608Z,101425.06
2022-12-03T12:56:39.194Z,101412.06
2022-12-03T12:59:41.984Z,101416.22
2022-12-03T13:02:58.503Z,101406.84
2022-12-03T13:06:01.988Z,101408.63
2022-12-03T13:09:14.621Z,101401.91
2022-12-03T13:12:23.130Z,101396.78
2022-12-03T13:15:39.250Z,101398.66
2022-12-03T13:18:49.137Z,101400.38
2022-12-03T13:21:54.458Z,101403.03
2022-12-03T13:24:58.669Z,101398.81
2022-12-03T13:28:01.228Z,101390.06
2022-12-03T13:31:22.035Z,101393.34
2022-12-03T13:34:27.289Z,101394.34
2022-12-03T13:37:31.463Z,101396.25
2022-12-03T13:40:36.632Z,101405.00
2022-12-03T13:43:44.515Z,101399.13
2022-12-03T13:46:47.675Z,101406.13
2022-12-03T13:50:03.986Z,101414.84
2022-12-03T13:53:48.039Z,101409.84
2022-12-03T13:56:50.912Z,101412.41
2022-12-03T13:59:53.901Z,101409.06
2022-12-03T14:02:56.891Z,101408.25
2022-12-03T14:05:59.420Z,101409.97
2022-12-03T14:09:01.924Z,101405.84
2022-12-03T14:12:23.067Z,101410.25
2022-12-03T14:15:26.516Z,101413.00
2022-12-03T14:18:29.163Z,101418.31
2022-12-03T14:21:31.917Z,101405.63
2022-12-03T14:24:34.510Z,101411.03
2022-12-03T14:27:37.216Z,101409.41
2022-12-03T14:30:39.636Z,101421.50
2022-12-03T14:33:42.289Z,101419.72
2022-12-03T14:36:44.746Z,101417.16
2022-12-03T14:39:47.432Z,101427.66
2022-12-03T14:42:50.133Z,101433.06
2022-12-03T14:45:52.966Z,101425.38
2022-12-03T14:48:56.683Z,101430.50
2022-12-03T14:51:59.965Z,101433.25
2022-12-03T14:55:02.500Z,101436.88
2022-12-03T14:58:05.238Z,101443.03
2022-12-03T15:01:07.873Z,101451.69
2022-12-03T15:04:10.784Z,101443.81
2022-12-03T15:07:13.280Z,101449.88
2022-12-03T15:10:16.902Z,101444.09
2022-12-03T15:13:19.340Z,101441.66
2022-12-03T15:16:22.019Z,101446.84
2022-12-03T15:19:24.898Z,101447.13
2022-12-03T15:22:27.636Z,101453.28
2022-12-03T15:25:30.732Z,101455.06
2022-12-03T15:28:33.786Z,101449.97
2022-12-03T15:31:36.291Z,101450.03
2022-12-03T15:34:39.692Z,101453.50
2022-12-03T15:37:42.445Z,101458.69
2022-12-03T15:40:45.499Z,101457.03
2022-12-03T15:43:52.724Z,101453.75
2022-12-03T15:46:55.220Z,101439.28
2022-12-03T15:49:57.728Z,101450.38
2022-12-03T15:53:00.232Z,101457.97
2022-12-03T15:56:02.885Z,101475.03
2022-12-03T15:59:05.560Z,101469.19
2022-12-03T16:02:08.138Z,101468.38
2022-12-03T16:05:12.780Z,101471.81
2022-12-03T16:08:15.563Z,101460.81
2022-12-03T16:11:19.062Z,101459.94
2022-12-03T16:14:21.504Z,101468.50
2022-12-03T16:17:24.369Z,101465.97
2022-12-03T16:20:27.292Z,101463.44
2022-12-03T16:23:29.900Z,101463.38
2022-12-03T16:26:32.650Z,101463.41
2022-12-03T16:29:35.466Z,101465.13
2022-12-03T16:32:38.032Z,101462.56
2022-12-03T16:35:40.539Z,101454.09
2022-12-03T16:38:43.286Z,101454.94
2022-12-03T16:41:45.960Z,101453.28
2022-12-03T16:45:08.796Z,101458.34
2022-12-03T16:48:11.231Z,101461.78
2022-12-03T16:51:14.108Z,101463.44
2022-12-03T16:54:16.772Z,101458.34
2022-12-03T16:57:19.176Z,101460.06
2022-12-03T17:00:22.040Z,101451.56
2022-12-03T17:03:28.962Z,101453.25
2022-12-03T17:06:36.492Z,101455.81
2022-12-03T17:09:39.002Z,101459.19
2022-12-03T17:13:08.330Z,101470.25
2022-12-03T17:16:06.839Z,101457.47
2022-12-03T17:19:09.513Z,101466.88
2022-12-03T17:22:12.111Z,101461.75
2022-12-03T17:25:14.777Z,101466.88
2022-12-03T17:28:17.234Z,101462.59
2022-12-03T17:31:20.384Z,101458.34
2022-12-03T17:34:22.819Z,101460.09
2022-12-03T17:37:25.301Z,101460.06
2022-12-03T17:40:28.127Z,101462.63
2022-12-03T17:43:30.906Z,101460.94
2022-12-03T17:46:33.462Z,101462.63
2022-12-03T17:49:36.095Z,101449.03
2022-12-03T17:52:38.832Z,101454.97
2022-12-03T17:55:44.769Z,101454.13
2022-12-03T17:58:48.090Z,101449.88
2022-12-03T18:01:50.627Z,101455.81
2022-12-03T18:04:53.173Z,101447.31
2022-12-03T18:07:55.721Z,101453.28
2022-12-03T18:10:58.345Z,101448.16
2022-12-03T18:14:01.511Z,101452.41
2022-12-03T18:17:04.038Z,101449.88
2022-12-03T18:20:08.647Z,101441.38
2022-12-03T18:23:12.055Z,101445.63
2022-12-03T18:26:14.938Z,101438.81
2022-12-03T18:29:17.962Z,101443.06
2022-12-03T18:32:28.743Z,101443.91
2022-12-03T18:35:32.349Z,101441.34
2022-12-03T18:38:35.031Z,101445.63
2022-12-03T18:41:37.704Z,101446.47
2022-12-03T18:44:42.742Z,101442.22
2022-12-03T18:47:49.371Z,101438.81
2022-12-03T18:50:52.195Z,101434.56
2022-12-03T18:53:54.963Z,101434.56
2022-12-03T18:56:57.671Z,101433.72
2022-12-03T19:00:00.366Z,101443.06
2022-12-03T19:03:04.369Z,101438.78
2022-12-03T19:06:17.186Z,101438.81
2022-12-03T19:09:22.085Z,101441.34
2022-12-03T19:12:25.457Z,101444.75
2022-12-03T19:15:28.218Z,101439.63
2022-12-03T19:18:31.245Z,101437.06
2022-12-03T19:21:34.340Z,101439.66
2022-12-03T19:24:37.184Z,101437.09
2022-12-03T19:27:42.272Z,101441.34
2022-12-03T19:30:56.094Z,101447.25
2022-12-03T19:34:01.086Z,101436.22
2022-12-03T19:37:07.529Z,101433.66
2022-12-03T19:40:10.491Z,101435.38
2022-12-03T19:43:13.623Z,101439.63
2022-12-03T19:46:17.041Z,101433.69
2022-12-03T19:49:21.366Z,101428.56
2022-12-03T19:52:24.173Z,101444.72
2022-12-03T19:55:26.887Z,101436.25
2022-12-03T19:58:29.991Z,101437.97
2022-12-03T20:01:35.351Z,101440.50
2022-12-03T20:04:38.478Z,101446.44
2022-12-03T20:07:41.233Z,101441.34
2022-12-03T20:10:43.784Z,101443.91
2022-12-03T20:13:53.713Z,101443.91
2022-12-03T20:16:56.344Z,101449.84
2022-12-03T20:19:59.489Z,101444.75
2022-12-03T20:23:02.298Z,101443.91
2022-12-03T20:26:10.562Z,101449.00
2022-12-03T20:29:13.941Z,101449.84
2022-12-03T20:32:16.809Z,101441.38
2022-12-03T20:35:19.570Z,101444.75
2022-12-03T20:38:23.813Z,101442.19
2022-12-03T20:41:27.800Z,101446.44
2022-12-03T20:44:30.179Z,101448.09
2022-12-03T20:47:32.843Z,101449.81
2022-12-03T20:50:38.535Z,101452.41
2022-12-03T20:53:43.170Z,101454.09
2022-12-03T20:56:45.791Z,101450.69
2022-12-03T20:59:48.745Z,101454.09
2022-12-03T21:02:52.277Z,101458.34
2022-12-03T21:06:01.419Z,101452.38
2022-12-03T21:09:06.295Z,101448.97
2022-12-03T21:12:09.062Z,101446.44
2022-12-03T21:15:11.895Z,101450.69
2022-12-03T21:18:16.611Z,101460.03
2022-12-03T21:21:19.775Z,101449.03
2022-12-03T21:24:22.534Z,101453.25
2022-12-03T21:27:25.008Z,101447.31
2022-12-03T21:30:27.940Z,101449.88
2022-12-03T21:33:31.333Z,101454.94
2022-12-03T21:36:34.264Z,101449.00
2022-12-03T21:39:36.970Z,101452.38
2022-12-03T21:42:39.608Z,101454.94
2022-12-03T21:45:42.901Z,101448.97
2022-12-03T21:48:45.716Z,101446.44
2022-12-03T21:51:48.375Z,101447.28
2022-12-03T21:54:54.419Z,101443.06
2022-12-03T21:57:57.058Z,101449.03
2022-12-03T22:00:59.594Z,101448.13
2022-12-03T22:04:02.041Z,101450.69
2022-12-03T22:07:06.780Z,101449.81
2022-12-03T22:10:11.820Z,101444.75
2022-12-03T22:13:14.683Z,101437.06
2022-12-03T22:16:22.007Z,101437.09
2022-12-03T22:19:25.620Z,101438.78
2022-12-03T22:22:28.122Z,101440.47
2022-12-03T22:25:30.692Z,101443.88
2022-12-03T22:28:34.224Z,101437.09
2022-12-03T22:31:36.884Z,101437.06
2022-12-03T22:34:41.248Z,101443.84
2022-12-03T22:37:43.743Z,101444.69
2022-12-03T22:40:47.153Z,101454.03
2022-12-03T22:43:50.030Z,101458.34
2022-12-03T22:46:52.593Z,101449.00
2022-12-03T22:49:57.466Z,101444.72
2022-12-03T22:53:00.028Z,101445.56
2022-12-03T22:56:02.520Z,101437.06
2022-12-03T22:59:05.592Z,101445.53
2022-12-03T23:02:08.052Z,101446.38
2022-12-03T23:05:10.445Z,101451.53
2022-12-03T23:08:16.857Z,101443.06
2022-12-03T23:11:20.019Z,101440.50
2022-12-03T23:14:22.515Z,101441.34
2022-12-03T23:17:24.983Z,101436.19
2022-12-03T23:20:28.242Z,101427.75
2022-12-03T23:23:30.679Z,101427.72
2022-12-03T23:26:38.128Z,101421.75
2022-12-03T23:29:40.687Z,101425.09
2022-12-03T23:32:44.495Z,101426.81
2022-12-03T23:35:47.056Z,101419.19
2022-12-03T23:38:50.077Z,101414.94
2022-12-03T23:41:52.903Z,101409.00
2022-12-03T23:44:55.372Z,101418.34
2022-12-03T23:47:58.477Z,101410.72
2022-12-03T23:51:22.545Z,101416.69
2022-12-03T23:54:24.986Z,101411.59
2022-12-03T23:57:27.600Z,101403.94
